首页
METAR-TAF:

METAR-TAF

机场 :

Kbely

布拉格, 捷克共和国

纬度: 50-07-17N, 经度: 14-32-37E, 海拔: 286米

当前天气观测

该预报发布于2小时和36分钟前的15:00 UTC
风速3节,风向东转东北,在东北之间变化
温度 4°C
湿度 87%
气压 1027 hPa
能見度: 5000
散云层高于800英尺
多云层高于1100英尺
轻雾

METAR: LKKB 031500Z 07003KT 040V180 5000 BR SCT008 BKN011 04/02 Q1027 NOSIG

时间: 18:36 (17:36 UTC)

预报

该预报发布于6小时和36分钟前的11:00 UTC
预报有效从03日的 12点(UTC)到 04日的 12点(UTC)
风速2节,风向多变
能見度: 0100
层高于100英尺
成为
从 03日的 12点(UTC)到 03日的 14点(UTC)
风速5节,风向西
能見度: 0600
层高于200英尺
短暂存在
从 03日的 13点(UTC)到 03日的 18点(UTC)
能見度: 2000
阴天层高于500英尺
轻雾
成为
从 03日的 20点(UTC)到 03日的 22点(UTC)
能見度: 0200
层高于100英尺

TAF: LKKB 031100Z 0312/0412 VRB02KT 0100 FG VV001 BECMG 0312/0314 27005KT 0600 FG VV002 TEMPO 0313/0318 2000 BR OVC005 BECMG 0320/0322 0200 FG VV001

超过4000个机场的气象观测和天气预报(METAR&TAF报告)。

可查询的气象台以黄色和红色小点在地图上表示。

将鼠标移到小点上方,可查看气象台名称。

然后点击查看天气观测和预报。

如需切换地图:点击带黑十字的绿色按钮放大地图;点击带横线的绿色按钮缩小地图;或者点击绿色箭头查看邻近地区的地图。


METAR-TAF: